Artesia Wells, Texas
Current Conditions -  °F | °C
As of 5:16 PM on Sunday 21 Dec 2014 (Local Time) from KCOT Reporting Station
Few Clouds Few Clouds  
Wind Chill: 60°   Ceiling: Unl
Heat Index: 60°   Visibility: 10mi
Dew Point: 51°   Wind: 7mph
Humidity: 72%   Direction: 150°SSE
Pressure: 29.91"   Gusts: NA
Location:  28.28°N, 99.29°W
Report Text: KCOT 212316Z AUTO 15006KT 10SM FEW022 16/11 A2991 RMK AO2 T01560106
Loading
Personal Weather Stations






























Interactive Weather Map New forecast layout! Learn more

10-Day Weather Forecast

Advertisements
Track Severe Weather on mobile